Time;durP1;ratioP1;P1;durP2;ratioP2;P2;SDS_P1;SDS_P2;PMS_P1;PMS_P2;Temp;Humidity;BMP_temperature;BMP_pressure;BME280_temperature;BME280_humidity;BME280_pressure;Samples;Min_cycle;Max_cycle;Signal;HPM_P1;HPM_P2
2022/11/07 00:00:50;;;;;;;40.03;33.25;;;22.10;59.80;;;;;;4745554;55;21070;-34
2022/11/07 00:05:53;;;;;;;39.25;32.33;;;22.10;59.80;;;;;;4745324;55;20998;-32
2022/11/07 00:10:54;;;;;;;36.80;30.80;;;22.10;60.40;;;;;;4843756;55;21545;-42
2022/11/07 00:15:59;;;;;;;37.75;31.52;;;22.10;59.90;;;;;;4817534;55;21103;-39
2022/11/07 00:21:05;;;;;;;36.08;30.42;;;22.10;59.80;;;;;;4757654;55;21022;-34
2022/11/07 00:26:08;;;;;;;38.97;32.83;;;22.10;59.80;;;;;;4996386;55;21109;-28
2022/11/07 00:31:11;;;;;;;38.05;31.62;;;22.10;59.90;;;;;;4819123;55;21017;-41
2022/11/07 00:36:21;;;;;;;38.15;32.33;;;22.10;59.90;;;;;;4778899;55;21572;-35
2022/11/07 00:41:22;;;;;;;38.92;32.08;;;22.10;59.90;;;;;;4801950;55;21089;-40
2022/11/07 00:46:23;;;;;;;37.22;32.60;;;22.10;59.90;;;;;;4798412;55;21021;-32
2022/11/07 00:51:26;;;;;;;37.47;31.50;;;22.10;59.80;;;;;;5102445;55;21069;-43
2022/11/07 00:56:27;;;;;;;40.25;32.97;;;22.10;60.00;;;;;;4745689;59;21005;-38
2022/11/07 01:01:30;;;;;;;38.85;31.75;;;22.10;59.90;;;;;;4849685;55;21057;-40
2022/11/07 01:06:33;;;;;;;40.63;32.90;;;22.10;60.30;;;;;;4947513;55;21006;-41
2022/11/07 01:11:36;;;;;;;39.60;30.95;;;22.10;59.90;;;;;;4745150;56;21587;-38
2022/11/07 01:16:37;;;;;;;40.20;33.25;;;22.10;60.00;;;;;;4840454;55;21034;-30
2022/11/07 01:21:40;;;;;;;38.92;32.50;;;22.10;60.00;;;;;;4896434;55;21464;-30
2022/11/07 01:26:42;;;;;;;37.80;31.27;;;22.10;60.10;;;;;;4752051;55;21061;-36
2022/11/07 01:31:43;;;;;;;38.90;32.78;;;22.10;59.90;;;;;;4852408;55;21137;-33
2022/11/07 01:36:44;;;;;;;39.38;32.08;;;22.10;60.10;;;;;;4750156;55;21002;-41
2022/11/07 01:41:45;;;;;;;36.80;30.15;;;22.00;59.90;;;;;;4798866;55;21077;-36
2022/11/07 01:46:48;;;;;;;37.33;31.48;;;22.20;60.20;;;;;;4746073;59;21076;-37
2022/11/07 01:52:02;;;;;;;36.63;31.52;;;22.10;59.90;;;;;;4913286;55;21014;-33
2022/11/07 01:57:07;;;;;;;37.55;31.58;;;22.00;59.90;;;;;;4844831;55;21456;-38
2022/11/07 02:02:09;;;;;;;35.40;29.17;;;22.00;59.90;;;;;;4791380;55;20990;-41
2022/11/07 02:07:21;;;;;;;36.80;30.75;;;22.10;60.00;;;;;;4746017;59;21468;-42
2022/11/07 02:12:24;;;;;;;36.95;30.37;;;22.20;60.30;;;;;;4775605;55;21117;-42
2022/11/07 02:17:25;;;;;;;36.83;30.27;;;22.10;59.90;;;;;;4824060;55;21104;-35
2022/11/07 02:22:46;;;;;;;37.42;30.20;;;22.00;59.90;;;;;;4976697;55;21006;-30
2022/11/07 02:27:51;;;;;;;36.72;30.60;;;22.10;60.00;;;;;;4833675;55;20970;-36
2022/11/07 02:32:52;;;;;;;36.67;30.40;;;22.10;60.30;;;;;;4907964;55;20997;-37
2022/11/07 02:37:54;;;;;;;34.85;29.45;;;22.00;60.00;;;;;;4927257;55;21018;-38
2022/11/07 02:42:56;;;;;;;36.40;30.25;;;22.00;60.20;;;;;;4918741;55;21058;-35
2022/11/07 02:47:57;;;;;;;36.67;29.42;;;22.10;59.90;;;;;;4745327;59;21013;-37
2022/11/07 02:52:58;;;;;;;37.08;31.00;;;22.10;60.10;;;;;;4882243;55;20998;-43
2022/11/07 02:57:59;;;;;;;35.83;29.63;;;22.10;60.00;;;;;;4745619;59;21073;-30
2022/11/07 03:02:59;;;;;;;36.30;30.55;;;22.10;60.00;;;;;;4867315;55;21121;-31
2022/11/07 03:08:00;;;;;;;36.67;29.48;;;22.10;60.20;;;;;;4801862;55;21073;-31
2022/11/07 03:13:01;;;;;;;33.72;28.62;;;22.20;60.90;;;;;;4910516;55;21523;-32
2022/11/07 03:18:02;;;;;;;36.08;28.10;;;22.10;60.30;;;;;;4744474;59;21590;-36
2022/11/07 03:23:03;;;;;;;36.47;28.70;;;22.00;60.00;;;;;;4942717;55;21041;-37
2022/11/07 03:28:04;;;;;;;35.25;29.40;;;22.10;60.10;;;;;;4763001;55;21129;-36
2022/11/07 03:33:05;;;;;;;34.97;29.33;;;22.10;60.10;;;;;;4806490;55;21058;-41
2022/11/07 03:38:06;;;;;;;32.58;27.00;;;22.10;60.00;;;;;;4745177;59;21042;-42
2022/11/07 03:43:07;;;;;;;34.75;28.80;;;22.10;60.80;;;;;;4745350;59;21014;-34
2022/11/07 03:48:08;;;;;;;34.80;29.23;;;22.10;60.00;;;;;;4873101;55;21005;-40
2022/11/07 03:53:09;;;;;;;37.17;28.85;;;22.00;60.00;;;;;;4836772;55;21575;-34
2022/11/07 03:58:10;;;;;;;35.15;28.58;;;22.00;60.30;;;;;;4745165;55;21045;-38
2022/11/07 04:03:10;;;;;;;35.03;28.25;;;22.10;60.20;;;;;;5098877;55;20982;-32
2022/11/07 04:08:11;;;;;;;36.58;29.37;;;22.10;60.10;;;;;;5026370;55;21603;-39
2022/11/07 04:18:31;;;;;;;37.15;29.90;;;22.10;60.70;;;;;;4745165;55;21097;-38
2022/11/07 04:23:32;;;;;;;35.60;29.02;;;22.10;60.10;;;;;;4815163;55;21516;-36
2022/11/07 04:28:33;;;;;;;36.65;30.60;;;22.00;60.10;;;;;;4760337;55;21568;-30
2022/11/07 04:33:33;;;;;;;36.58;28.75;;;22.20;60.20;;;;;;4745945;55;20998;-34
2022/11/07 04:38:34;;;;;;;34.40;28.12;;;22.00;60.10;;;;;;4811039;55;21125;-33
2022/11/07 04:43:35;;;;;;;36.80;28.77;;;22.00;60.00;;;;;;4769915;55;21073;-38
2022/11/07 04:48:36;;;;;;;36.88;29.48;;;22.00;60.10;;;;;;4771539;55;21014;-37
2022/11/07 04:53:37;;;;;;;34.92;27.85;;;22.00;60.10;;;;;;4744957;59;21562;-40
2022/11/07 04:58:37;;;;;;;34.55;28.27;;;22.00;60.00;;;;;;4947894;55;21136;-38
2022/11/07 05:03:38;;;;;;;39.60;29.48;;;22.00;60.30;;;;;;4815930;55;21046;-38
2022/11/07 05:08:39;;;;;;;35.63;28.33;;;22.00;60.00;;;;;;4744818;59;21017;-38
2022/11/07 05:13:40;;;;;;;35.05;28.83;;;22.00;60.10;;;;;;4745042;59;21487;-38
2022/11/07 05:18:41;;;;;;;37.58;29.65;;;22.00;60.10;;;;;;4745379;59;21062;-37
2022/11/07 05:23:41;;;;;;;37.13;29.33;;;22.00;60.30;;;;;;4832030;55;21001;-42
2022/11/07 05:28:42;;;;;;;35.67;29.15;;;22.00;60.20;;;;;;4798150;55;21060;-34
2022/11/07 05:33:43;;;;;;;34.25;28.45;;;22.00;60.30;;;;;;4829070;55;21114;-39
2022/11/07 05:38:46;;;;;;;36.20;28.42;;;22.00;60.20;;;;;;4746641;55;21070;-40
2022/11/07 05:43:47;;;;;;;36.28;28.90;;;22.00;60.20;;;;;;4965922;55;21006;-36
2022/11/07 05:48:50;;;;;;;33.08;28.25;;;22.00;60.20;;;;;;4932677;55;21022;-44
2022/11/07 05:53:51;;;;;;;37.47;29.37;;;22.00;60.20;;;;;;4745419;59;21002;-30
2022/11/07 05:58:51;;;;;;;36.75;29.87;;;22.00;60.20;;;;;;5026001;55;21002;-30
2022/11/07 06:03:52;;;;;;;37.75;29.73;;;22.00;60.20;;;;;;4819038;55;21528;-32
2022/11/07 06:08:53;;;;;;;37.05;30.17;;;22.00;60.20;;;;;;4771827;55;21029;-32
2022/11/07 06:13:54;;;;;;;37.83;29.90;;;22.00;60.10;;;;;;4901962;55;21077;-35
2022/11/07 06:18:55;;;;;;;36.03;29.90;;;22.00;60.20;;;;;;4767399;55;21021;-36
2022/11/07 06:23:57;;;;;;;37.30;29.12;;;22.00;60.20;;;;;;4745462;55;21006;-40
2022/11/07 06:28:58;;;;;;;37.30;29.15;;;22.00;60.20;;;;;;4759916;55;21622;-37
2022/11/07 06:33:58;;;;;;;38.50;30.35;;;22.00;60.20;;;;;;4745659;59;21121;-30
2022/11/07 06:38:59;;;;;;;38.42;29.48;;;22.00;60.20;;;;;;4867866;55;21005;-28
2022/11/07 06:44:00;;;;;;;37.65;30.60;;;22.00;60.20;;;;;;4745230;59;21009;-33
2022/11/07 06:49:01;;;;;;;40.12;31.67;;;22.00;60.20;;;;;;4745114;59;21058;-32
2022/11/07 06:54:02;;;;;;;38.97;30.65;;;22.00;60.10;;;;;;4745408;59;21017;-40
2022/11/07 06:59:03;;;;;;;37.10;29.95;;;22.00;60.10;;;;;;4745256;59;21579;-34
2022/11/07 07:04:04;;;;;;;38.95;31.05;;;22.00;60.10;;;;;;4807955;55;21041;-30
2022/11/07 07:09:08;;;;;;;40.12;31.15;;;22.00;60.10;;;;;;4761838;55;21856;-28
2022/11/07 07:14:09;;;;;;;38.53;31.05;;;22.00;59.90;;;;;;4744923;59;21493;-47
2022/11/07 07:19:11;;;;;;;41.00;31.95;;;22.00;60.70;;;;;;4745340;59;21030;-32
2022/11/07 07:24:12;;;;;;;38.20;30.08;;;22.00;60.10;;;;;;4766646;55;21018;-37
2022/11/07 07:29:14;;;;;;;39.78;31.90;;;22.10;60.00;;;;;;4796647;55;21504;-37
2022/11/07 07:34:15;;;;;;;41.22;32.58;;;22.00;60.00;;;;;;4794909;55;21030;-47
2022/11/07 07:39:15;;;;;;;41.63;31.92;;;22.00;60.00;;;;;;4850193;55;21089;-36
2022/11/07 07:44:16;;;;;;;40.92;31.40;;;22.00;60.00;;;;;;4745079;59;21032;-47
2022/11/07 07:49:17;;;;;;;42.95;32.65;;;22.00;59.90;;;;;;4882884;55;21085;-39
2022/11/07 07:54:18;;;;;;;44.80;33.55;;;22.00;59.90;;;;;;4745111;59;21033;-39
2022/11/07 07:59:18;;;;;;;43.13;33.35;;;22.00;59.90;;;;;;4898570;55;21029;-32
2022/11/07 08:04:19;;;;;;;45.03;33.30;;;22.00;59.80;;;;;;4747215;55;21509;-48
2022/11/07 08:09:20;;;;;;;49.38;35.95;;;22.00;60.40;;;;;;4783769;55;21022;-42
2022/11/07 08:14:21;;;;;;;48.80;38.42;;;22.10;60.00;;;;;;4743474;59;21045;-33
2022/11/07 08:19:22;;;;;;;53.20;38.40;;;22.20;60.10;;;;;;4744866;59;21540;-31
2022/11/07 08:24:23;;;;;;;56.75;40.58;;;22.20;60.20;;;;;;4972135;55;21114;-28
2022/11/07 08:29:24;;;;;;;65.75;43.38;;;22.30;60.20;;;;;;4873310;55;21005;-28
2022/11/07 08:34:25;;;;;;;57.50;44.05;;;22.30;60.20;;;;;;4775423;55;21504;-50
2022/11/07 08:39:26;;;;;;;70.62;46.92;;;22.30;60.10;;;;;;5034070;55;21074;-35
2022/11/07 08:44:27;;;;;;;73.22;52.25;;;22.40;60.20;;;;;;4744966;59;20990;-33
2022/11/07 08:49:28;;;;;;;75.32;52.92;;;22.40;60.10;;;;;;4744785;59;21042;-29
2022/11/07 08:54:28;;;;;;;81.87;53.17;;;22.40;60.00;;;;;;4745201;59;20986;-28
2022/11/07 08:59:29;;;;;;;75.50;52.92;;;22.50;60.10;;;;;;4745105;59;21555;-27
2022/11/07 09:04:30;;;;;;;78.78;55.05;;;22.50;60.10;;;;;;4744672;59;21037;-41
2022/11/07 09:09:31;;;;;;;75.90;54.40;;;22.50;60.00;;;;;;4744376;59;21470;-41
2022/11/07 09:14:32;;;;;;;83.75;56.72;;;22.50;60.00;;;;;;4766821;55;21153;-49
2022/11/07 09:19:32;;;;;;;77.80;56.00;;;22.50;60.10;;;;;;4745267;55;21017;-26
2022/11/07 09:24:33;;;;;;;85.87;57.88;;;22.60;60.20;;;;;;4744908;57;21010;-46
2022/11/07 09:29:35;;;;;;;86.37;59.40;;;22.60;60.10;;;;;;4762478;55;21508;-34
2022/11/07 09:34:35;;;;;;;89.75;61.67;;;22.60;60.10;;;;;;4912115;55;21646;-29
2022/11/07 09:39:36;;;;;;;100.60;63.53;;;22.60;60.10;;;;;;4818690;55;21081;-40
2022/11/07 09:45:06;;;;;;;100.80;66.90;;;22.60;60.50;;;;;;4753276;55;21025;-31
2022/11/07 09:50:50;;;;;;;107.43;67.62;;;22.60;60.10;;;;;;4771376;55;21033;-43
2022/11/07 09:55:54;;;;;;;111.65;68.28;;;22.60;60.10;;;;;;4816120;55;21105;-28
2022/11/07 10:01:02;;;;;;;118.70;70.72;;;22.60;60.50;;;;;;4760628;55;21018;-36
2022/11/07 10:06:56;;;;;;;119.40;73.82;;;22.60;60.20;;;;;;4746266;55;21488;-29
2022/11/07 10:12:11;;;;;;;118.32;73.87;;;22.60;59.80;;;;;;4772318;55;21018;-34
2022/11/07 10:17:30;;;;;;;130.87;73.78;;;22.50;59.80;;;;;;4739939;59;21042;-32
2022/11/07 10:30:50;;;;;;;122.62;75.57;;;22.50;59.40;;;;;;4744667;55;21069;-37
2022/11/07 10:36:16;;;;;;;126.65;79.20;;;22.50;59.70;;;;;;4755764;55;21082;-35
2022/11/07 10:41:20;;;;;;;128.68;79.35;;;22.60;60.00;;;;;;4744542;59;21556;-32
2022/11/07 10:46:26;;;;;;;131.12;79.85;;;22.60;60.20;;;;;;4785822;55;21165;-43
2022/11/07 10:51:38;;;;;;;127.85;80.25;;;22.60;60.30;;;;;;4774253;55;21078;-30
2022/11/07 10:56:48;;;;;;;125.60;78.12;;;22.60;60.40;;;;;;4771667;55;21058;-49
2022/11/07 11:01:52;;;;;;;126.70;79.95;;;22.70;60.50;;;;;;4753943;55;21148;-42
2022/11/07 11:06:57;;;;;;;138.07;85.40;;;22.70;60.60;;;;;;4813058;55;21003;-32
2022/11/07 11:12:03;;;;;;;135.15;83.18;;;22.70;60.70;;;;;;4766867;55;21014;-28
2022/11/07 11:17:05;;;;;;;130.87;82.37;;;22.70;61.60;;;;;;4744375;55;21086;-30
2022/11/07 11:22:15;;;;;;;127.10;81.85;;;22.70;61.20;;;;;;5015866;55;21005;-31
2022/11/07 11:27:20;;;;;;;123.82;78.35;;;22.80;61.40;;;;;;4791908;55;21547;-34
2022/11/07 11:33:18;;;;;;;130.25;83.05;;;22.80;61.50;;;;;;4766533;55;21156;-29
2022/11/07 11:38:32;;;;;;;123.60;78.93;;;22.80;61.60;;;;;;4856265;55;21552;-30
2022/11/07 11:43:59;;;;;;;128.55;81.15;;;22.80;61.80;;;;;;4747234;55;21081;-38
2022/11/07 11:49:49;;;;;;;119.70;79.47;;;22.90;62.00;;;;;;4746336;55;21002;-34
2022/11/07 11:54:51;;;;;;;125.12;81.28;;;22.90;62.30;;;;;;4759227;55;21006;-38
2022/11/07 12:00:19;;;;;;;124.38;81.60;;;22.90;62.50;;;;;;4829866;55;21002;-31
2022/11/07 12:06:22;;;;;;;120.28;78.15;;;22.90;62.50;;;;;;4781469;55;20994;-38
2022/11/07 12:12:15;;;;;;;116.60;77.07;;;22.90;62.90;;;;;;4843994;55;20998;-37
2022/11/07 12:17:44;;;;;;;126.65;81.80;;;23.00;63.10;;;;;;4759687;55;21504;-30
2022/11/07 12:24:44;;;;;;;120.72;81.00;;;22.90;63.00;;;;;;4747603;55;20995;-34
2022/11/07 12:30:11;;;;;;;114.18;79.05;;;22.90;62.70;;;;;;4906117;55;21010;-28
2022/11/07 12:37:01;;;;;;;116.32;80.95;;;22.90;63.00;;;;;;4776669;55;21082;-31
2022/11/07 12:42:09;;;;;;;116.10;78.70;;;22.80;62.60;;;;;;4815455;55;21559;-28
2022/11/07 12:49:08;;;;;;;116.80;79.28;;;22.80;62.60;;;;;;4744562;59;21468;-36
2022/11/07 12:56:47;;;;;;;120.60;82.47;;;22.70;62.60;;;;;;4759219;55;21085;-31
2022/11/07 13:04:50;;;;;;;113.53;77.53;;;22.70;62.60;;;;;;4788779;55;21037;-38
2022/11/07 13:10:07;;;;;;;118.25;80.10;;;22.70;62.30;;;;;;4773734;55;20998;-35
2022/11/07 13:15:10;;;;;;;116.43;80.90;;;22.80;62.60;;;;;;4745742;55;21014;-26
2022/11/07 13:20:30;;;;;;;112.37;79.18;;;22.70;62.30;;;;;;4816888;55;21511;-29
2022/11/07 13:25:32;;;;;;;116.15;79.70;;;22.70;63.10;;;;;;4837851;55;21472;-30
2022/11/07 13:30:38;;;;;;;108.37;78.50;;;22.70;62.70;;;;;;4831756;55;21122;-28
2022/11/07 13:35:39;;;;;;;112.00;79.50;;;22.80;62.60;;;;;;4864885;55;21451;-27
2022/11/07 13:40:49;;;;;;;108.32;78.28;;;22.80;62.90;;;;;;5004334;55;21038;-28
2022/11/07 13:45:56;;;;;;;104.80;72.85;;;22.80;63.10;;;;;;4763265;55;21034;-28
2022/11/07 13:51:36;;;;;;;109.63;76.82;;;22.80;63.00;;;;;;4773297;55;21069;-35
2022/11/07 13:56:52;;;;;;;108.53;75.87;;;22.90;63.40;;;;;;4807777;55;21038;-29
2022/11/07 14:01:55;;;;;;;109.25;76.18;;;22.90;63.50;;;;;;4865874;55;21049;-27
2022/11/07 14:07:00;;;;;;;101.62;75.18;;;22.90;63.90;;;;;;4791114;55;21476;-28
2022/11/07 14:12:00;;;;;;;107.28;74.37;;;22.90;64.00;;;;;;4809805;55;21014;-28
2022/11/07 14:17:02;;;;;;;103.00;74.35;;;22.90;64.10;;;;;;4745246;56;20997;-33
2022/11/07 14:22:03;;;;;;;110.60;75.50;;;22.90;64.20;;;;;;4845989;55;21003;-37
2022/11/07 14:27:07;;;;;;;104.07;72.60;;;23.00;64.50;;;;;;4772363;55;21035;-26
2022/11/07 14:32:16;;;;;;;109.68;74.95;;;23.00;64.30;;;;;;4786661;55;21523;-47
2022/11/07 14:37:20;;;;;;;104.22;72.60;;;22.90;64.10;;;;;;5145890;55;21046;-34
2022/11/07 14:42:24;;;;;;;102.82;75.95;;;22.90;64.00;;;;;;4796144;55;21005;-37
2022/11/07 14:47:31;;;;;;;100.95;71.97;;;22.80;63.90;;;;;;4790781;55;21022;-37
2022/11/07 14:52:46;;;;;;;100.25;71.55;;;22.80;64.00;;;;;;4743476;59;20993;-40
2022/11/07 14:57:47;;;;;;;93.50;68.43;;;22.70;64.00;;;;;;4838960;55;21094;-31
2022/11/07 15:02:51;;;;;;;102.60;72.05;;;22.70;64.00;;;;;;4966881;55;21041;-34
2022/11/07 15:07:52;;;;;;;101.60;72.70;;;22.70;64.00;;;;;;4798279;55;21030;-42
2022/11/07 15:13:03;;;;;;;94.82;69.03;;;22.60;63.90;;;;;;4750423;55;21145;-36
2022/11/07 15:18:05;;;;;;;94.85;69.40;;;22.60;63.70;;;;;;4942902;55;21058;-31
2022/11/07 15:23:39;;;;;;;93.82;67.97;;;22.60;63.90;;;;;;4970134;55;20998;-39
2022/11/07 15:29:22;;;;;;;94.40;68.12;;;22.60;64.60;;;;;;4745443;59;21075;-33
2022/11/07 15:34:26;;;;;;;91.35;67.25;;;22.60;63.80;;;;;;4990697;55;21026;-38
2022/11/07 15:39:27;;;;;;;92.93;69.05;;;22.60;63.80;;;;;;5148633;55;21495;-37
2022/11/07 15:44:27;;;;;;;88.57;66.37;;;22.50;63.80;;;;;;4746330;55;20982;-39
2022/11/07 15:49:29;;;;;;;93.00;66.78;;;22.50;63.70;;;;;;4881167;55;21030;-42
2022/11/07 15:54:30;;;;;;;93.47;67.47;;;22.50;63.70;;;;;;4992268;55;21010;-35
2022/11/07 15:59:36;;;;;;;92.28;68.03;;;22.50;63.70;;;;;;4745079;59;21141;-44
2022/11/07 16:04:37;;;;;;;92.20;67.40;;;22.50;63.60;;;;;;4745751;59;21460;-40
2022/11/07 16:09:38;;;;;;;90.85;65.47;;;22.50;63.70;;;;;;4745109;59;21002;-34
2022/11/07 16:14:39;;;;;;;91.22;66.95;;;22.50;63.50;;;;;;4744454;59;21021;-33
2022/11/07 16:19:40;;;;;;;86.20;65.25;;;22.50;63.50;;;;;;4784359;55;21058;-32
2022/11/07 16:24:41;;;;;;;84.82;64.20;;;22.50;63.50;;;;;;4745225;59;20958;-43
2022/11/07 16:29:43;;;;;;;87.20;64.43;;;22.40;63.40;;;;;;4771442;55;21002;-37
2022/11/07 16:34:43;;;;;;;84.25;63.58;;;22.40;63.40;;;;;;4772397;55;21453;-34
2022/11/07 16:39:44;;;;;;;86.55;64.00;;;22.40;63.40;;;;;;4783795;55;21129;-40
2022/11/07 16:44:45;;;;;;;83.43;62.80;;;22.40;63.30;;;;;;4745001;55;21014;-38
2022/11/07 16:49:46;;;;;;;83.72;62.55;;;22.40;63.20;;;;;;4847886;55;21014;-41
2022/11/07 16:54:47;;;;;;;84.45;63.75;;;22.40;63.30;;;;;;4801423;55;21049;-29
2022/11/07 16:59:49;;;;;;;84.93;64.43;;;22.40;63.20;;;;;;4885934;55;21073;-30
2022/11/07 17:04:52;;;;;;;86.12;64.62;;;22.40;63.20;;;;;;4837513;55;21456;-37
2022/11/07 17:09:52;;;;;;;83.05;61.85;;;22.40;63.20;;;;;;5005027;55;21013;-31
2022/11/07 17:14:53;;;;;;;86.12;64.10;;;22.40;63.10;;;;;;5003518;55;21010;-34
2022/11/07 17:19:54;;;;;;;80.47;62.15;;;22.40;63.10;;;;;;5037400;55;21680;-37
2022/11/07 17:24:55;;;;;;;84.40;64.37;;;22.30;63.00;;;;;;4776904;55;21054;-33
2022/11/07 17:29:56;;;;;;;86.50;64.32;;;22.40;63.10;;;;;;4951969;55;21069;-30
2022/11/07 17:34:57;;;;;;;78.82;60.22;;;22.40;63.10;;;;;;4744854;59;21058;-44
2022/11/07 17:39:57;;;;;;;77.55;60.83;;;22.30;63.00;;;;;;5015801;55;21014;-34
2022/11/07 17:44:58;;;;;;;83.82;62.00;;;22.30;62.90;;;;;;4767866;55;21010;-36
2022/11/07 17:49:59;;;;;;;80.97;61.58;;;22.30;62.90;;;;;;4932184;55;21007;-44
2022/11/07 17:55:00;;;;;;;79.35;60.92;;;22.30;62.90;;;;;;4982369;55;21002;-31
2022/11/07 18:00:03;;;;;;;82.10;62.45;;;22.30;62.90;;;;;;4744722;59;21053;-42
2022/11/07 18:05:04;;;;;;;79.32;60.03;;;22.30;62.90;;;;;;5017767;55;21500;-39
2022/11/07 18:10:06;;;;;;;79.28;59.42;;;22.30;62.80;;;;;;4925254;55;21154;-30
2022/11/07 18:15:10;;;;;;;84.18;62.65;;;22.30;62.80;;;;;;4919934;55;21039;-38
2022/11/07 18:20:11;;;;;;;80.38;60.67;;;22.30;62.80;;;;;;4956587;55;21429;-37
2022/11/07 18:25:12;;;;;;;82.75;62.35;;;22.30;62.80;;;;;;5170181;55;21095;-30
2022/11/07 18:30:13;;;;;;;73.75;58.47;;;22.30;62.80;;;;;;4862369;55;21002;-30
2022/11/07 18:35:14;;;;;;;76.32;59.78;;;22.30;62.80;;;;;;4763559;55;21001;-38
2022/11/07 18:40:15;;;;;;;78.35;59.53;;;22.20;62.80;;;;;;4813547;55;21022;-38
2022/11/07 18:45:16;;;;;;;74.30;57.00;;;22.30;62.80;;;;;;4792188;55;21025;-39
2022/11/07 18:50:17;;;;;;;81.72;60.22;;;22.30;62.90;;;;;;4862788;55;21149;-38
2022/11/07 18:55:17;;;;;;;78.87;59.35;;;22.30;62.80;;;;;;5230555;55;21058;-44
2022/11/07 19:00:18;;;;;;;76.75;58.97;;;22.30;62.70;;;;;;4985509;55;21093;-46
2022/11/07 19:05:20;;;;;;;77.15;59.40;;;22.30;62.70;;;;;;4964265;55;21053;-47
2022/11/07 19:10:21;;;;;;;78.95;60.72;;;22.30;62.70;;;;;;4863634;55;21511;-42
2022/11/07 19:15:25;;;;;;;78.20;60.67;;;22.30;62.70;;;;;;4744762;59;21023;-42
2022/11/07 19:20:26;;;;;;;80.82;60.85;;;22.20;62.60;;;;;;4745459;55;21547;-38
2022/11/07 19:25:27;;;;;;;79.57;60.80;;;22.30;62.60;;;;;;5016562;55;21029;-31
2022/11/07 19:30:30;;;;;;;79.75;61.40;;;22.30;62.70;;;;;;4744996;59;21006;-39
2022/11/07 19:35:31;;;;;;;76.37;58.95;;;22.20;62.60;;;;;;4813969;55;21468;-41
2022/11/07 19:40:32;;;;;;;79.62;61.33;;;22.20;62.50;;;;;;4927899;55;21033;-35
2022/11/07 19:45:34;;;;;;;80.18;62.25;;;22.20;62.50;;;;;;4745822;55;21030;-42
2022/11/07 19:50:36;;;;;;;75.95;58.70;;;22.20;62.60;;;;;;4787218;55;21054;-46
2022/11/07 19:55:37;;;;;;;75.55;58.83;;;22.20;62.50;;;;;;4753778;55;21038;-40
2022/11/07 20:00:38;;;;;;;80.22;63.50;;;22.20;62.40;;;;;;4927110;55;21491;-40
2022/11/07 20:05:39;;;;;;;79.62;60.67;;;22.20;62.40;;;;;;4792292;55;21102;-40
2022/11/07 20:10:45;;;;;;;81.63;63.38;;;22.20;62.40;;;;;;4783304;55;21088;-31
2022/11/07 20:15:46;;;;;;;78.53;62.60;;;22.20;62.40;;;;;;4820838;55;21069;-36
2022/11/07 20:20:46;;;;;;;79.25;62.70;;;22.20;62.30;;;;;;4985069;55;21098;-34
2022/11/07 20:25:47;;;;;;;83.25;63.05;;;22.20;62.30;;;;;;4855958;55;21598;-37
2022/11/07 20:30:48;;;;;;;80.00;63.30;;;22.20;62.20;;;;;;4945093;55;21093;-45
2022/11/07 20:36:01;;;;;;;77.85;60.45;;;22.20;62.20;;;;;;4745403;59;21001;-42
2022/11/07 20:41:03;;;;;;;78.05;61.70;;;22.40;62.30;;;;;;4745141;55;21006;-37
2022/11/07 20:46:06;;;;;;;81.60;62.13;;;22.20;62.20;;;;;;4745645;59;21041;-32
2022/11/07 20:51:09;;;;;;;82.55;64.22;;;22.20;62.10;;;;;;4745037;59;21017;-35
2022/11/07 20:56:13;;;;;;;80.93;62.38;;;22.20;62.10;;;;;;4801920;55;21050;-32
2022/11/07 21:01:17;;;;;;;83.30;63.87;;;22.20;62.10;;;;;;4763584;55;21078;-43
2022/11/07 21:06:19;;;;;;;83.35;62.70;;;22.20;62.00;;;;;;4745236;59;21452;-31
2022/11/07 21:11:19;;;;;;;82.00;62.15;;;22.20;62.00;;;;;;4818332;55;21022;-30
2022/11/07 21:16:21;;;;;;;85.75;64.78;;;22.20;61.90;;;;;;4744744;59;21121;-32
2022/11/07 21:21:26;;;;;;;84.15;63.75;;;22.20;61.80;;;;;;4788095;55;21503;-44
2022/11/07 21:26:30;;;;;;;82.03;63.60;;;22.20;61.80;;;;;;4745523;59;21487;-46
2022/11/07 21:31:31;;;;;;;82.68;62.72;;;22.20;61.80;;;;;;4858049;55;21580;-40
2022/11/07 21:36:32;;;;;;;85.95;65.35;;;22.20;61.70;;;;;;4745668;55;20982;-29
2022/11/07 21:41:33;;;;;;;83.22;62.95;;;22.30;61.70;;;;;;5055736;55;21004;-46
2022/11/07 21:46:34;;;;;;;87.10;65.53;;;22.20;61.60;;;;;;4893608;55;21569;-49
2022/11/07 21:51:35;;;;;;;82.65;64.72;;;22.20;61.60;;;;;;4825818;55;21125;-41
2022/11/07 21:56:38;;;;;;;87.55;65.18;;;22.20;61.60;;;;;;4975419;55;21559;-39
2022/11/07 22:01:40;;;;;;;79.25;60.08;;;22.20;61.40;;;;;;4838972;55;21575;-38
2022/11/07 22:06:43;;;;;;;81.40;61.88;;;22.20;61.50;;;;;;4745679;59;21069;-40
2022/11/07 22:11:44;;;;;;;84.00;61.78;;;22.20;61.40;;;;;;4745217;56;21138;-41
2022/11/07 22:16:45;;;;;;;80.90;62.38;;;22.20;61.30;;;;;;4821114;55;21109;-45
2022/11/07 22:21:48;;;;;;;81.70;62.17;;;22.10;61.30;;;;;;4745482;59;20997;-43
2022/11/07 22:26:48;;;;;;;77.93;58.63;;;22.20;61.20;;;;;;4770247;55;20994;-43
2022/11/07 22:31:49;;;;;;;79.40;61.30;;;22.10;61.20;;;;;;4964038;55;21065;-35
2022/11/07 22:36:50;;;;;;;76.35;59.85;;;22.10;61.20;;;;;;4745217;59;21449;-44
2022/11/07 22:41:51;;;;;;;79.47;60.78;;;22.20;61.50;;;;;;4820831;55;21527;-36
2022/11/07 22:46:52;;;;;;;80.57;62.30;;;22.20;61.20;;;;;;5200744;55;21073;-29
2022/11/07 22:51:52;;;;;;;79.15;60.88;;;22.20;61.30;;;;;;5104688;55;21622;-43
2022/11/07 22:56:53;;;;;;;77.28;58.22;;;22.10;61.20;;;;;;4796150;55;21014;-42
2022/11/07 23:01:54;;;;;;;73.40;57.62;;;22.10;61.20;;;;;;4826931;55;21001;-47
2022/11/07 23:06:58;;;;;;;83.28;59.53;;;22.10;61.20;;;;;;4745499;59;21039;-39
2022/11/07 23:12:00;;;;;;;73.40;56.13;;;22.10;61.10;;;;;;4745087;59;21042;-40
2022/11/07 23:17:07;;;;;;;76.28;57.97;;;22.10;61.10;;;;;;4769377;55;21627;-43
2022/11/07 23:22:08;;;;;;;75.70;57.25;;;22.10;61.10;;;;;;4810011;55;21050;-40
2022/11/07 23:27:09;;;;;;;75.30;57.05;;;22.10;61.20;;;;;;4783854;55;21594;-45
2022/11/07 23:32:10;;;;;;;75.43;57.00;;;22.10;61.20;;;;;;4744504;59;21066;-44
2022/11/07 23:37:16;;;;;;;74.85;56.72;;;22.10;61.10;;;;;;4931881;55;20982;-46
2022/11/07 23:42:17;;;;;;;72.75;56.37;;;22.10;61.00;;;;;;4832838;55;21545;-45
2022/11/07 23:52:37;;;;;;;72.15;53.85;;;22.10;60.90;;;;;;4744584;55;21531;-40
